Time;durP1;ratioP1;P1;durP2;ratioP2;P2;SDS_P1;SDS_P2;PMS_P1;PMS_P2;Temp;Humidity;BMP_temperature;BMP_pressure;BME280_temperature;BME280_humidity;BME280_pressure;Samples;Min_cycle;Max_cycle;Signal;HPM_P1;HPM_P2
2024/01/26 00:01:27;;;;;;;25.25;6.63;;;;;;;;;;6229875;28;20448;-62
2024/01/26 00:04:28;;;;;;;19.92;7.15;;;;;;;;;;6228047;28;20080;-63
2024/01/26 00:07:29;;;;;;;21.42;6.32;;;;;;;;;;6230626;28;20041;-63
2024/01/26 00:10:30;;;;;;;17.45;6.25;;;;;;;;;;6232378;28;20057;-63
2024/01/26 00:13:30;;;;;;;19.50;6.90;;;;;;;;;;6231095;28;20033;-63
2024/01/26 00:16:32;;;;;;;26.33;7.47;;;;;;;;;;6229300;28;20049;-64
2024/01/26 00:19:32;;;;;;;24.10;5.70;;;;;;;;;;6229814;28;20670;-63
2024/01/26 00:22:33;;;;;;;22.98;6.35;;;;;;;;;;6231330;28;20083;-64
2024/01/26 00:25:35;;;;;;;20.58;5.95;;;;;;;;;;6229865;28;20064;-64
2024/01/26 00:28:35;;;;;;;21.05;5.53;;;;;;;;;;6230039;28;20057;-63
2024/01/26 00:31:36;;;;;;;21.17;5.75;;;;;;;;;;6226245;28;20056;-63
2024/01/26 00:34:37;;;;;;;16.02;5.03;;;;;;;;;;6227596;28;20449;-64
2024/01/26 00:37:38;;;;;;;18.67;5.00;;;;;;;;;;6232108;28;20053;-63
2024/01/26 00:40:39;;;;;;;17.42;4.75;;;;;;;;;;6228101;28;20049;-66
2024/01/26 00:43:39;;;;;;;12.50;4.22;;;;;;;;;;6229214;28;20041;-66
2024/01/26 00:46:40;;;;;;;23.50;4.90;;;;;;;;;;6227226;28;20045;-64
2024/01/26 00:49:41;;;;;;;20.27;4.93;;;;;;;;;;6232047;28;21167;-63
2024/01/26 00:52:42;;;;;;;21.38;6.22;;;;;;;;;;6229773;28;20510;-63
2024/01/26 00:55:42;;;;;;;22.48;5.20;;;;;;;;;;6226806;28;20049;-63
2024/01/26 00:58:43;;;;;;;17.55;4.78;;;;;;;;;;6229162;28;20049;-66
2024/01/26 01:01:44;;;;;;;15.50;4.63;;;;;;;;;;6228714;28;20492;-64
2024/01/26 01:04:45;;;;;;;24.52;5.38;;;;;;;;;;6226248;28;20661;-63
2024/01/26 01:07:46;;;;;;;16.95;5.15;;;;;;;;;;6230514;28;20444;-65
2024/01/26 01:10:47;;;;;;;28.08;7.13;;;;;;;;;;6226413;28;20045;-65
2024/01/26 01:13:47;;;;;;;26.63;5.85;;;;;;;;;;6230029;28;20099;-64
2024/01/26 01:16:50;;;;;;;18.35;5.20;;;;;;;;;;6229967;28;20199;-64
2024/01/26 01:19:50;;;;;;;23.67;4.85;;;;;;;;;;6227863;28;20045;-64
2024/01/26 01:22:51;;;;;;;20.30;5.50;;;;;;;;;;6226806;28;20056;-63
2024/01/26 01:25:52;;;;;;;16.13;5.25;;;;;;;;;;6227624;28;20048;-63
2024/01/26 01:28:52;;;;;;;22.45;5.20;;;;;;;;;;6229026;28;20424;-64
2024/01/26 01:31:53;;;;;;;19.95;5.45;;;;;;;;;;6227113;28;21153;-66
2024/01/26 01:34:54;;;;;;;20.63;5.32;;;;;;;;;;6227193;28;20053;-64
2024/01/26 01:37:54;;;;;;;21.23;6.10;;;;;;;;;;6229516;28;20057;-64
2024/01/26 01:40:55;;;;;;;18.38;4.88;;;;;;;;;;6227974;28;20064;-65
2024/01/26 01:43:56;;;;;;;18.95;5.55;;;;;;;;;;6228162;28;20049;-68
2024/01/26 01:46:57;;;;;;;21.25;5.13;;;;;;;;;;6229401;28;20866;-64
2024/01/26 01:49:58;;;;;;;20.25;5.55;;;;;;;;;;6228086;28;20060;-64
2024/01/26 01:53:03;;;;;;;19.42;5.43;;;;;;;;;;6228921;28;20808;-65
2024/01/26 01:56:04;;;;;;;22.25;5.72;;;;;;;;;;6225453;28;20576;-64
2024/01/26 01:59:08;;;;;;;21.40;5.13;;;;;;;;;;6228212;28;20050;-63
2024/01/26 02:02:09;;;;;;;29.63;5.10;;;;;;;;;;6224978;28;20523;-66
2024/01/26 02:05:10;;;;;;;19.02;4.50;;;;;;;;;;6228057;28;20103;-65
2024/01/26 02:08:11;;;;;;;14.13;4.13;;;;;;;;;;6244394;28;20054;-64
2024/01/26 02:11:11;;;;;;;15.25;3.83;;;;;;;;;;6225837;28;20126;-67
2024/01/26 02:14:12;;;;;;;15.57;4.28;;;;;;;;;;6226065;28;20069;-64
2024/01/26 02:17:13;;;;;;;13.02;4.30;;;;;;;;;;6227246;28;20053;-63
2024/01/26 02:20:13;;;;;;;19.50;4.50;;;;;;;;;;6228309;28;20057;-64
2024/01/26 02:23:23;;;;;;;14.73;3.97;;;;;;;;;;6230343;28;20056;-63
2024/01/26 02:26:24;;;;;;;16.02;4.45;;;;;;;;;;6227288;28;20600;-64
2024/01/26 02:29:25;;;;;;;18.50;5.15;;;;;;;;;;6228580;28;20060;-63
2024/01/26 02:32:25;;;;;;;19.42;5.00;;;;;;;;;;6227098;28;20055;-67
2024/01/26 02:35:26;;;;;;;19.48;4.65;;;;;;;;;;6228069;28;20453;-67
2024/01/26 02:38:27;;;;;;;16.48;3.90;;;;;;;;;;6226400;28;20429;-63
2024/01/26 02:41:29;;;;;;;15.48;4.15;;;;;;;;;;6227191;28;20049;-70
2024/01/26 02:44:30;;;;;;;12.10;3.20;;;;;;;;;;6224040;28;20046;-63
2024/01/26 02:47:31;;;;;;;18.77;3.72;;;;;;;;;;6229114;28;20049;-63
2024/01/26 02:50:33;;;;;;;16.33;3.90;;;;;;;;;;6224941;28;20042;-64
2024/01/26 02:53:39;;;;;;;19.88;3.55;;;;;;;;;;6243048;28;20408;-63
2024/01/26 02:56:39;;;;;;;10.80;4.47;;;;;;;;;;6243107;28;20088;-64
2024/01/26 02:59:40;;;;;;;13.57;3.20;;;;;;;;;;6240268;28;20069;-63
2024/01/26 03:02:41;;;;;;;14.00;3.60;;;;;;;;;;6242592;28;20443;-63
2024/01/26 03:05:42;;;;;;;18.60;4.53;;;;;;;;;;6239577;28;20077;-63
2024/01/26 03:08:42;;;;;;;17.48;4.10;;;;;;;;;;6244627;28;20080;-64
2024/01/26 03:11:43;;;;;;;14.73;4.05;;;;;;;;;;6250989;28;20053;-64
2024/01/26 03:14:44;;;;;;;15.15;3.72;;;;;;;;;;6251760;28;20041;-70
2024/01/26 03:17:45;;;;;;;19.08;3.67;;;;;;;;;;6247099;28;20441;-63
2024/01/26 03:20:46;;;;;;;11.65;4.30;;;;;;;;;;6241381;28;20380;-66
2024/01/26 03:23:47;;;;;;;20.60;3.97;;;;;;;;;;6237840;28;20060;-63
2024/01/26 03:26:48;;;;;;;19.77;3.63;;;;;;;;;;6241322;28;20389;-64
2024/01/26 03:29:49;;;;;;;13.75;3.58;;;;;;;;;;6241834;28;20049;-64
2024/01/26 03:32:49;;;;;;;19.08;4.15;;;;;;;;;;6240971;28;20041;-64
2024/01/26 03:35:50;;;;;;;19.58;3.67;;;;;;;;;;6247457;28;20042;-63
2024/01/26 03:38:51;;;;;;;16.77;4.50;;;;;;;;;;6249687;28;20115;-63
2024/01/26 03:41:51;;;;;;;15.57;3.55;;;;;;;;;;6248155;28;20114;-63
2024/01/26 03:44:52;;;;;;;15.20;4.07;;;;;;;;;;6246316;28;20045;-63
2024/01/26 03:47:53;;;;;;;15.77;4.57;;;;;;;;;;6252602;28;20055;-64
2024/01/26 03:50:53;;;;;;;10.75;3.95;;;;;;;;;;6250251;28;20487;-63
2024/01/26 03:53:54;;;;;;;14.70;4.20;;;;;;;;;;6250556;28;20052;-63
2024/01/26 03:56:55;;;;;;;13.70;3.80;;;;;;;;;;6247740;28;20053;-64
2024/01/26 03:59:55;;;;;;;15.38;3.65;;;;;;;;;;6242306;28;20053;-63
2024/01/26 04:02:56;;;;;;;20.08;4.63;;;;;;;;;;6239735;28;20056;-65
2024/01/26 04:05:57;;;;;;;15.07;4.40;;;;;;;;;;6241873;28;20057;-63
2024/01/26 04:08:59;;;;;;;18.23;4.78;;;;;;;;;;6238682;28;20054;-64
2024/01/26 04:11:59;;;;;;;12.90;4.07;;;;;;;;;;6240052;28;20050;-64
2024/01/26 04:15:00;;;;;;;16.38;4.03;;;;;;;;;;6241178;28;20084;-64
2024/01/26 04:18:01;;;;;;;16.10;3.63;;;;;;;;;;6232406;28;20564;-63
2024/01/26 04:21:01;;;;;;;13.65;4.22;;;;;;;;;;6240357;28;20049;-64
2024/01/26 04:24:02;;;;;;;16.10;4.40;;;;;;;;;;6240323;28;20527;-68
2024/01/26 04:27:03;;;;;;;16.80;3.45;;;;;;;;;;6240410;28;20057;-64
2024/01/26 04:30:04;;;;;;;12.35;3.40;;;;;;;;;;6239190;28;20049;-64
2024/01/26 04:33:06;;;;;;;18.88;5.07;;;;;;;;;;6238304;28;20079;-63
2024/01/26 04:36:08;;;;;;;22.27;6.22;;;;;;;;;;6239904;28;20049;-63
2024/01/26 04:39:11;;;;;;;22.13;5.40;;;;;;;;;;6240857;28;20413;-64
2024/01/26 04:42:12;;;;;;;15.20;5.00;;;;;;;;;;6239076;28;20500;-64
2024/01/26 04:45:13;;;;;;;21.05;5.38;;;;;;;;;;6238950;28;20041;-64
2024/01/26 04:48:14;;;;;;;22.80;5.15;;;;;;;;;;6239486;28;20041;-65
2024/01/26 04:51:14;;;;;;;21.55;4.78;;;;;;;;;;6237462;28;20041;-66
2024/01/26 04:54:15;;;;;;;22.52;6.00;;;;;;;;;;6239437;28;20068;-64
2024/01/26 04:57:16;;;;;;;15.52;4.18;;;;;;;;;;6238930;28;20461;-64
2024/01/26 05:00:20;;;;;;;26.52;5.05;;;;;;;;;;6240191;28;20489;-64
2024/01/26 05:03:21;;;;;;;15.57;4.72;;;;;;;;;;6236947;28;20437;-63
2024/01/26 05:06:21;;;;;;;16.27;4.57;;;;;;;;;;6239256;28;20077;-64
2024/01/26 05:09:22;;;;;;;15.38;4.25;;;;;;;;;;6238392;28;20038;-64
2024/01/26 05:12:23;;;;;;;19.45;4.50;;;;;;;;;;6234977;28;20045;-64
2024/01/26 05:15:24;;;;;;;18.65;5.07;;;;;;;;;;6237745;28;20532;-70
2024/01/26 05:18:25;;;;;;;22.98;5.47;;;;;;;;;;6234924;28;20128;-66
2024/01/26 05:21:25;;;;;;;18.33;5.05;;;;;;;;;;6233188;28;20692;-63
2024/01/26 05:24:26;;;;;;;19.95;4.22;;;;;;;;;;6235588;28;20053;-64
2024/01/26 05:27:27;;;;;;;16.35;4.45;;;;;;;;;;6234748;28;20066;-64
2024/01/26 05:30:28;;;;;;;25.35;5.20;;;;;;;;;;6236204;28;20057;-68
2024/01/26 05:33:28;;;;;;;13.15;4.22;;;;;;;;;;6238388;28;20043;-64
2024/01/26 05:36:29;;;;;;;20.40;4.50;;;;;;;;;;6250363;28;20049;-63
2024/01/26 05:39:30;;;;;;;19.30;4.53;;;;;;;;;;6250684;28;20040;-63
2024/01/26 05:42:30;;;;;;;17.75;4.25;;;;;;;;;;6248974;28;20045;-64
2024/01/26 05:45:31;;;;;;;22.10;5.22;;;;;;;;;;6249867;28;20045;-64
2024/01/26 05:48:32;;;;;;;18.27;4.78;;;;;;;;;;6247480;28;20053;-63
2024/01/26 05:51:33;;;;;;;18.63;4.45;;;;;;;;;;6247006;28;20401;-63
2024/01/26 05:54:33;;;;;;;21.75;5.07;;;;;;;;;;6243519;28;20095;-63
2024/01/26 05:57:34;;;;;;;15.48;4.72;;;;;;;;;;6249200;28;20067;-63
2024/01/26 06:00:35;;;;;;;19.00;4.60;;;;;;;;;;6239663;28;20139;-64
2024/01/26 06:03:35;;;;;;;21.27;5.00;;;;;;;;;;6239936;28;20405;-64
2024/01/26 06:06:36;;;;;;;17.70;4.85;;;;;;;;;;6246656;28;20050;-64
2024/01/26 06:09:36;;;;;;;16.70;4.95;;;;;;;;;;6245218;28;20050;-64
2024/01/26 06:12:40;;;;;;;16.90;5.70;;;;;;;;;;6238976;28;20060;-64
2024/01/26 06:15:41;;;;;;;15.30;5.07;;;;;;;;;;6239274;28;20056;-66
2024/01/26 06:18:43;;;;;;;20.27;5.78;;;;;;;;;;6239499;28;20080;-64
2024/01/26 06:21:44;;;;;;;18.35;4.55;;;;;;;;;;6237776;28;20409;-63
2024/01/26 06:24:45;;;;;;;18.38;4.78;;;;;;;;;;6238672;28;20041;-67
2024/01/26 06:27:45;;;;;;;18.33;4.95;;;;;;;;;;6243844;28;20064;-68
2024/01/26 06:30:46;;;;;;;18.90;5.03;;;;;;;;;;6243681;28;20481;-65
2024/01/26 06:33:47;;;;;;;20.98;5.35;;;;;;;;;;6242317;28;20045;-64
2024/01/26 06:36:48;;;;;;;18.65;5.97;;;;;;;;;;6242183;28;20046;-64
2024/01/26 06:39:48;;;;;;;24.90;7.05;;;;;;;;;;6242109;28;20053;-63
2024/01/26 06:42:49;;;;;;;24.95;6.40;;;;;;;;;;6240423;28;20049;-64
2024/01/26 06:45:50;;;;;;;27.83;8.20;;;;;;;;;;6243748;28;20041;-64
2024/01/26 06:48:51;;;;;;;21.73;8.65;;;;;;;;;;6241596;28;20088;-64
2024/01/26 06:51:51;;;;;;;26.45;9.90;;;;;;;;;;6241956;28;20060;-63
2024/01/26 06:54:52;;;;;;;27.83;8.90;;;;;;;;;;6243572;28;20400;-64
2024/01/26 06:57:53;;;;;;;29.13;9.23;;;;;;;;;;6243402;28;20499;-64
2024/01/26 07:00:53;;;;;;;33.72;10.38;;;;;;;;;;6240939;28;20424;-63
2024/01/26 07:03:54;;;;;;;34.92;10.50;;;;;;;;;;6240905;28;20501;-64
2024/01/26 07:06:55;;;;;;;30.35;9.80;;;;;;;;;;6243039;28;20079;-64
2024/01/26 07:09:56;;;;;;;34.75;10.98;;;;;;;;;;6243322;28;20057;-64
2024/01/26 07:12:56;;;;;;;34.22;11.50;;;;;;;;;;6241554;28;20053;-64
2024/01/26 07:15:57;;;;;;;33.50;11.88;;;;;;;;;;6241891;28;20466;-63
2024/01/26 07:18:58;;;;;;;42.67;12.38;;;;;;;;;;6241524;28;20059;-69
2024/01/26 07:21:58;;;;;;;32.88;11.18;;;;;;;;;;6241691;28;20552;-64
2024/01/26 07:25:00;;;;;;;29.30;10.15;;;;;;;;;;6241009;28;20144;-63
2024/01/26 07:28:00;;;;;;;30.35;10.32;;;;;;;;;;6242738;28;20053;-63
2024/01/26 07:31:01;;;;;;;30.00;9.73;;;;;;;;;;6238820;28;20056;-64
2024/01/26 07:34:02;;;;;;;28.65;9.52;;;;;;;;;;6239955;28;20119;-64
2024/01/26 07:37:03;;;;;;;35.42;10.35;;;;;;;;;;6240494;28;20140;-65
2024/01/26 07:40:04;;;;;;;34.50;10.95;;;;;;;;;;6241143;28;20057;-64
2024/01/26 07:43:06;;;;;;;33.63;11.32;;;;;;;;;;6239839;28;20045;-64
2024/01/26 07:46:08;;;;;;;30.75;10.60;;;;;;;;;;6242593;28;20046;-65
2024/01/26 07:49:09;;;;;;;37.80;12.27;;;;;;;;;;6242292;28;20084;-64
2024/01/26 07:52:10;;;;;;;36.05;10.80;;;;;;;;;;6238680;28;20053;-64
2024/01/26 07:55:10;;;;;;;31.05;10.65;;;;;;;;;;6241778;28;20494;-63
2024/01/26 07:58:11;;;;;;;35.67;12.35;;;;;;;;;;6241491;28;20370;-64
2024/01/26 08:01:13;;;;;;;38.40;11.93;;;;;;;;;;6239861;28;21591;-65
2024/01/26 08:04:13;;;;;;;49.08;12.05;;;;;;;;;;6240974;28;20444;-64
2024/01/26 08:07:15;;;;;;;36.55;11.50;;;;;;;;;;6243408;28;20057;-65
2024/01/26 08:10:16;;;;;;;40.05;12.00;;;;;;;;;;6240539;28;20049;-64
2024/01/26 08:13:17;;;;;;;35.92;11.90;;;;;;;;;;6240407;28;20080;-64
2024/01/26 08:16:18;;;;;;;29.38;10.77;;;;;;;;;;6241323;28;20439;-63
2024/01/26 08:19:18;;;;;;;34.80;11.13;;;;;;;;;;6240383;28;20409;-64
2024/01/26 08:22:19;;;;;;;35.25;11.45;;;;;;;;;;6238752;28;20055;-64
2024/01/26 08:25:20;;;;;;;30.63;10.57;;;;;;;;;;6241355;28;20049;-65
2024/01/26 08:28:20;;;;;;;37.70;11.10;;;;;;;;;;6241205;28;20065;-63
2024/01/26 08:31:21;;;;;;;34.42;11.95;;;;;;;;;;6237081;28;20067;-64
2024/01/26 08:34:22;;;;;;;39.90;12.43;;;;;;;;;;6238470;28;20046;-64
2024/01/26 08:37:23;;;;;;;38.03;12.32;;;;;;;;;;6241059;28;20049;-65
2024/01/26 08:40:23;;;;;;;37.50;11.80;;;;;;;;;;6241362;28;20478;-64
2024/01/26 08:43:24;;;;;;;39.90;12.50;;;;;;;;;;6239737;28;20465;-64
2024/01/26 08:46:24;;;;;;;33.45;11.63;;;;;;;;;;6240794;28;20049;-63
2024/01/26 08:49:25;;;;;;;35.65;12.10;;;;;;;;;;6240781;28;20053;-64
2024/01/26 08:52:27;;;;;;;42.83;12.02;;;;;;;;;;6237247;28;20389;-64
2024/01/26 08:55:28;;;;;;;40.67;12.32;;;;;;;;;;6240509;28;20474;-64
2024/01/26 08:58:28;;;;;;;35.95;11.82;;;;;;;;;;6239287;28;20107;-64
2024/01/26 09:01:29;;;;;;;30.92;10.77;;;;;;;;;;6238777;28;20176;-64
2024/01/26 09:04:30;;;;;;;30.20;11.40;;;;;;;;;;6238792;28;20068;-63
2024/01/26 09:07:31;;;;;;;33.05;11.52;;;;;;;;;;6237292;28;20049;-64
2024/01/26 09:10:31;;;;;;;34.17;11.07;;;;;;;;;;6238135;28;20045;-65
2024/01/26 09:13:32;;;;;;;27.45;10.10;;;;;;;;;;6239025;28;20041;-64
2024/01/26 09:16:34;;;;;;;34.80;10.50;;;;;;;;;;6240264;28;20050;-64
2024/01/26 09:19:35;;;;;;;36.15;10.75;;;;;;;;;;6239223;28;20049;-64
2024/01/26 09:22:36;;;;;;;32.10;11.32;;;;;;;;;;6235846;28;20055;-64
2024/01/26 09:25:37;;;;;;;33.63;10.50;;;;;;;;;;6238331;28;20052;-63
2024/01/26 09:28:38;;;;;;;39.63;10.73;;;;;;;;;;6239707;28;20053;-63
2024/01/26 09:31:39;;;;;;;25.55;9.68;;;;;;;;;;6238987;28;20045;-65
2024/01/26 09:34:39;;;;;;;33.45;9.70;;;;;;;;;;6240497;28;20050;-65
2024/01/26 09:37:40;;;;;;;30.55;8.38;;;;;;;;;;6238798;28;20055;-64
2024/01/26 09:40:42;;;;;;;26.25;8.73;;;;;;;;;;6237747;28;20057;-65
2024/01/26 09:43:43;;;;;;;27.08;8.65;;;;;;;;;;6237363;28;20053;-65
2024/01/26 09:46:44;;;;;;;26.73;8.48;;;;;;;;;;6239830;28;20489;-64
2024/01/26 09:49:56;;;;;;;26.23;9.00;;;;;;;;;;6239099;28;20049;-64
2024/01/26 09:53:01;;;;;;;34.83;8.47;;;;;;;;;;6224223;28;20057;-64
2024/01/26 09:56:04;;;;;;;23.65;8.10;;;;;;;;;;6239423;28;20050;-64
2024/01/26 09:59:07;;;;;;;28.90;9.13;;;;;;;;;;6239964;28;20636;-64
2024/01/26 10:02:11;;;;;;;23.92;9.75;;;;;;;;;;6235468;28;20099;-64
2024/01/26 10:05:15;;;;;;;28.00;7.45;;;;;;;;;;6238681;28;20091;-64
2024/01/26 10:08:16;;;;;;;22.98;7.25;;;;;;;;;;6238362;28;20053;-64
2024/01/26 10:11:17;;;;;;;26.15;7.35;;;;;;;;;;6237296;28;20049;-68
2024/01/26 10:14:24;;;;;;;26.92;7.63;;;;;;;;;;6237700;28;20049;-65
2024/01/26 10:17:25;;;;;;;19.50;7.32;;;;;;;;;;6237455;28;20046;-64
2024/01/26 10:20:26;;;;;;;19.08;6.97;;;;;;;;;;6237993;28;20072;-63
2024/01/26 10:23:27;;;;;;;22.65;7.35;;;;;;;;;;6236052;28;20045;-64
2024/01/26 10:26:28;;;;;;;21.92;7.60;;;;;;;;;;6238278;28;20048;-64
2024/01/26 10:29:29;;;;;;;30.15;8.30;;;;;;;;;;6238623;28;20456;-64
2024/01/26 10:32:32;;;;;;;32.03;8.68;;;;;;;;;;6238765;28;20045;-65
2024/01/26 10:35:33;;;;;;;19.58;7.43;;;;;;;;;;6238122;28;20045;-65
2024/01/26 10:38:35;;;;;;;20.40;7.95;;;;;;;;;;6237538;28;20057;-64
2024/01/26 10:41:41;;;;;;;26.27;8.05;;;;;;;;;;6239017;28;20071;-63
2024/01/26 10:44:44;;;;;;;19.75;6.78;;;;;;;;;;6237187;28;20045;-64
2024/01/26 10:47:46;;;;;;;20.02;6.95;;;;;;;;;;6240101;28;20080;-64
2024/01/26 10:50:47;;;;;;;25.08;8.77;;;;;;;;;;6237336;28;20096;-63
2024/01/26 10:53:49;;;;;;;26.85;8.57;;;;;;;;;;6238256;28;20045;-64
2024/01/26 10:56:50;;;;;;;26.15;7.90;;;;;;;;;;6236703;28;20053;-64
2024/01/26 10:59:50;;;;;;;26.77;9.02;;;;;;;;;;6238816;28;20374;-64
2024/01/26 11:02:51;;;;;;;17.42;6.55;;;;;;;;;;6237158;28;20053;-64
2024/01/26 11:05:53;;;;;;;18.98;6.90;;;;;;;;;;6237529;28;20049;-63
2024/01/26 11:09:03;;;;;;;18.95;7.32;;;;;;;;;;6238999;28;20084;-64
2024/01/26 11:12:27;;;;;;;20.73;7.15;;;;;;;;;;6241334;28;20046;-64
2024/01/26 11:15:28;;;;;;;22.90;7.18;;;;;;;;;;6242890;28;20057;-63
2024/01/26 11:18:34;;;;;;;15.98;6.07;;;;;;;;;;6236799;28;20042;-65
2024/01/26 11:21:39;;;;;;;14.13;4.47;;;;;;;;;;6227497;28;20053;-64
2024/01/26 11:24:42;;;;;;;16.85;5.95;;;;;;;;;;6241589;28;20389;-65
2024/01/26 11:27:43;;;;;;;17.33;5.20;;;;;;;;;;6240143;28;20057;-66
2024/01/26 11:30:56;;;;;;;16.73;5.25;;;;;;;;;;6243217;28;20045;-64
2024/01/26 11:33:57;;;;;;;17.50;5.57;;;;;;;;;;6241321;28;20676;-64
2024/01/26 11:37:11;;;;;;;13.10;5.80;;;;;;;;;;6242119;28;20058;-64
2024/01/26 11:40:11;;;;;;;16.40;6.43;;;;;;;;;;6239825;28;20049;-64
2024/01/26 11:43:12;;;;;;;14.77;6.20;;;;;;;;;;6230300;28;20373;-65
2024/01/26 11:46:13;;;;;;;19.23;7.05;;;;;;;;;;6241825;28;20049;-66
2024/01/26 11:49:14;;;;;;;16.35;6.22;;;;;;;;;;6239202;28;20046;-64
2024/01/26 11:52:15;;;;;;;17.55;6.30;;;;;;;;;;6242475;28;20083;-65
2024/01/26 11:55:16;;;;;;;20.23;6.30;;;;;;;;;;6240823;28;20053;-65
2024/01/26 11:58:17;;;;;;;14.52;6.55;;;;;;;;;;6231892;28;20088;-65
2024/01/26 12:01:18;;;;;;;18.77;6.03;;;;;;;;;;6238002;28;20115;-64
2024/01/26 12:04:18;;;;;;;19.60;6.18;;;;;;;;;;6247943;28;20045;-65
2024/01/26 12:07:19;;;;;;;15.77;7.00;;;;;;;;;;6250877;28;20102;-67
2024/01/26 12:10:20;;;;;;;20.63;6.80;;;;;;;;;;6246477;28;20041;-65
2024/01/26 12:13:21;;;;;;;21.60;6.88;;;;;;;;;;6243849;28;20045;-65
2024/01/26 12:16:24;;;;;;;22.98;7.13;;;;;;;;;;6240886;28;20052;-64
2024/01/26 12:19:26;;;;;;;16.40;6.18;;;;;;;;;;6237465;28;20053;-64
2024/01/26 12:22:26;;;;;;;21.45;7.38;;;;;;;;;;6240925;28;20057;-64
2024/01/26 12:25:27;;;;;;;21.92;6.07;;;;;;;;;;6242172;28;20049;-64
2024/01/26 12:28:28;;;;;;;20.13;6.47;;;;;;;;;;6236559;28;22220;-65
2024/01/26 12:31:32;;;;;;;17.98;5.72;;;;;;;;;;6239607;28;20056;-64
2024/01/26 12:34:35;;;;;;;15.65;6.03;;;;;;;;;;6234894;28;20050;-64
2024/01/26 12:37:36;;;;;;;20.15;6.35;;;;;;;;;;6238200;28;20088;-64
2024/01/26 12:40:37;;;;;;;20.65;5.93;;;;;;;;;;6239197;28;20038;-66
2024/01/26 12:43:39;;;;;;;18.13;5.93;;;;;;;;;;6240863;28;20453;-64
2024/01/26 12:46:41;;;;;;;17.00;5.40;;;;;;;;;;6240725;28;20053;-64
2024/01/26 12:49:42;;;;;;;14.95;5.13;;;;;;;;;;6237560;28;20057;-64
2024/01/26 12:52:43;;;;;;;19.60;6.20;;;;;;;;;;6238659;28;20038;-64
2024/01/26 12:55:45;;;;;;;14.07;5.68;;;;;;;;;;6236107;28;20481;-64
2024/01/26 12:58:46;;;;;;;16.02;4.78;;;;;;;;;;6237556;28;20046;-64
2024/01/26 13:01:46;;;;;;;17.25;4.95;;;;;;;;;;6240542;28;20045;-67
2024/01/26 13:04:50;;;;;;;11.85;4.32;;;;;;;;;;6238743;28;20049;-65
2024/01/26 13:07:51;;;;;;;13.15;4.05;;;;;;;;;;6228275;28;20524;-65
2024/01/26 13:10:52;;;;;;;22.08;6.00;;;;;;;;;;6229381;28;20049;-65
2024/01/26 13:13:53;;;;;;;15.83;5.20;;;;;;;;;;6230754;28;20053;-66
2024/01/26 13:16:54;;;;;;;19.33;5.55;;;;;;;;;;6228979;28;20721;-64
2024/01/26 13:19:55;;;;;;;16.17;4.60;;;;;;;;;;6228147;28;20917;-64
2024/01/26 13:22:56;;;;;;;17.38;6.13;;;;;;;;;;6227400;28;20061;-65
2024/01/26 13:25:57;;;;;;;22.02;6.85;;;;;;;;;;6228245;28;20576;-66
2024/01/26 13:28:58;;;;;;;26.48;7.30;;;;;;;;;;6225674;28;20057;-64
2024/01/26 13:32:00;;;;;;;22.17;6.47;;;;;;;;;;6230989;28;20969;-67
2024/01/26 13:35:00;;;;;;;21.55;6.25;;;;;;;;;;6227616;28;20483;-68
2024/01/26 13:38:01;;;;;;;16.35;5.50;;;;;;;;;;6227993;28;20460;-64
2024/01/26 13:41:02;;;;;;;17.27;5.45;;;;;;;;;;6227622;28;20053;-64
2024/01/26 13:44:03;;;;;;;16.92;4.65;;;;;;;;;;6232123;28;20515;-65
2024/01/26 13:47:04;;;;;;;13.50;4.53;;;;;;;;;;6225612;28;20042;-66
2024/01/26 13:50:06;;;;;;;12.63;4.60;;;;;;;;;;6227032;28;20876;-68
2024/01/26 13:53:08;;;;;;;14.25;4.53;;;;;;;;;;6227607;28;20172;-65
2024/01/26 13:56:09;;;;;;;;;;;;;;;;;;6229177;28;20927;-66
2024/01/26 13:59:10;;;;;;;12.77;4.57;;;;;;;;;;6226273;28;19991;-67
2024/01/26 14:02:11;;;;;;;11.60;4.93;;;;;;;;;;6241597;28;20522;-69
2024/01/26 14:05:12;;;;;;;12.65;4.45;;;;;;;;;;6228942;28;20489;-64
2024/01/26 14:08:13;;;;;;;21.92;4.90;;;;;;;;;;6227086;28;20053;-66
2024/01/26 14:11:13;;;;;;;20.25;4.65;;;;;;;;;;6225912;28;20045;-64
2024/01/26 14:14:15;;;;;;;15.13;4.72;;;;;;;;;;6229610;28;20791;-64
2024/01/26 14:17:16;;;;;;;14.52;4.53;;;;;;;;;;6223598;28;20508;-69
2024/01/26 14:20:21;;;;;;;18.00;4.72;;;;;;;;;;6227304;28;20046;-63
2024/01/26 14:23:22;;;;;;;14.02;4.53;;;;;;;;;;6228964;28;20073;-67
2024/01/26 14:26:27;;;;;;;16.00;5.00;;;;;;;;;;6229216;28;20131;-64
2024/01/26 14:29:27;;;;;;;15.88;4.40;;;;;;;;;;6225138;28;20060;-67
2024/01/26 14:32:28;;;;;;;14.10;4.63;;;;;;;;;;6228435;28;20045;-65
2024/01/26 14:35:29;;;;;;;14.10;4.05;;;;;;;;;;6227350;28;20072;-65
2024/01/26 14:38:30;;;;;;;14.77;5.22;;;;;;;;;;6225462;28;20049;-66
2024/01/26 14:41:31;;;;;;;16.13;4.53;;;;;;;;;;6226958;28;20065;-64
2024/01/26 14:44:32;;;;;;;15.27;4.95;;;;;;;;;;6228913;28;20049;-65
2024/01/26 14:47:34;;;;;;;15.30;4.45;;;;;;;;;;6228245;28;20049;-65
2024/01/26 14:50:35;;;;;;;17.67;4.57;;;;;;;;;;6230223;28;20091;-66
2024/01/26 14:53:36;;;;;;;16.85;4.75;;;;;;;;;;6232405;28;20084;-65
2024/01/26 14:56:37;;;;;;;13.43;4.47;;;;;;;;;;6233089;28;20045;-65
2024/01/26 14:59:38;;;;;;;21.92;5.43;;;;;;;;;;6229440;28;20046;-67
2024/01/26 15:02:39;;;;;;;14.95;4.47;;;;;;;;;;6231598;28;20093;-64
2024/01/26 15:05:40;;;;;;;16.85;6.38;;;;;;;;;;6248389;28;20064;-64
2024/01/26 15:08:42;;;;;;;23.02;8.68;;;;;;;;;;6231432;28;20056;-64
2024/01/26 15:11:44;;;;;;;14.68;5.85;;;;;;;;;;6245426;28;20049;-64
2024/01/26 15:14:44;;;;;;;25.52;8.55;;;;;;;;;;6232375;28;20049;-64
2024/01/26 15:17:47;;;;;;;23.90;8.35;;;;;;;;;;6230708;28;20427;-64
2024/01/26 15:20:48;;;;;;;39.72;13.05;;;;;;;;;;6231097;28;20885;-64
2024/01/26 15:23:49;;;;;;;32.75;11.85;;;;;;;;;;6232329;28;20216;-64
2024/01/26 15:26:50;;;;;;;37.92;13.35;;;;;;;;;;6230274;28;20053;-63
2024/01/26 15:29:51;;;;;;;38.72;12.13;;;;;;;;;;6232368;28;20501;-64
2024/01/26 15:32:52;;;;;;;35.97;12.23;;;;;;;;;;6234812;28;20050;-63
2024/01/26 15:35:52;;;;;;;28.38;11.88;;;;;;;;;;6231778;28;20045;-64
2024/01/26 15:38:53;;;;;;;24.67;9.77;;;;;;;;;;6231079;28;20053;-65
2024/01/26 15:41:54;;;;;;;27.08;11.02;;;;;;;;;;6233844;28;20420;-64
2024/01/26 15:44:56;;;;;;;27.80;10.88;;;;;;;;;;6234037;28;20170;-64
2024/01/26 15:47:57;;;;;;;23.67;9.00;;;;;;;;;;6230008;28;20493;-63
2024/01/26 15:50:59;;;;;;;45.78;13.52;;;;;;;;;;6230752;28;20057;-64
2024/01/26 15:53:59;;;;;;;51.55;15.50;;;;;;;;;;6234634;28;20103;-64
2024/01/26 15:57:02;;;;;;;59.85;19.38;;;;;;;;;;6230185;28;20053;-64
2024/01/26 16:00:03;;;;;;;51.17;17.40;;;;;;;;;;6227801;28;20046;-64
2024/01/26 16:03:04;;;;;;;41.38;16.83;;;;;;;;;;6231750;28;20064;-64
2024/01/26 16:06:05;;;;;;;42.65;17.15;;;;;;;;;;6231640;28;20066;-63
2024/01/26 16:09:06;;;;;;;66.68;22.90;;;;;;;;;;6229071;28;20046;-64
2024/01/26 16:12:06;;;;;;;30.20;11.75;;;;;;;;;;6230515;28;20051;-64
2024/01/26 16:15:09;;;;;;;22.98;9.45;;;;;;;;;;6233240;28;20053;-63
2024/01/26 16:18:09;;;;;;;24.60;7.78;;;;;;;;;;6232445;28;20065;-63
2024/01/26 16:21:10;;;;;;;24.90;8.45;;;;;;;;;;6231672;28;20111;-63
2024/01/26 16:24:11;;;;;;;25.85;9.65;;;;;;;;;;6233821;28;20053;-64
2024/01/26 16:27:12;;;;;;;28.65;10.20;;;;;;;;;;6232698;28;20069;-63
2024/01/26 16:30:12;;;;;;;46.05;13.77;;;;;;;;;;6231944;28;20077;-64
2024/01/26 16:33:17;;;;;;;44.42;13.52;;;;;;;;;;6232430;28;20531;-63
2024/01/26 16:36:19;;;;;;;47.22;14.68;;;;;;;;;;6233055;28;20412;-63
2024/01/26 16:39:19;;;;;;;48.40;16.00;;;;;;;;;;6232405;28;20075;-63
2024/01/26 16:42:20;;;;;;;44.45;11.98;;;;;;;;;;6231593;28;20046;-61
2024/01/26 16:45:21;;;;;;;40.05;12.52;;;;;;;;;;6232611;28;20054;-61
2024/01/26 16:48:22;;;;;;;30.70;10.07;;;;;;;;;;6229706;28;20057;-64
2024/01/26 16:51:23;;;;;;;34.80;11.23;;;;;;;;;;6230348;28;20049;-62
2024/01/26 16:54:23;;;;;;;34.83;12.13;;;;;;;;;;6231536;28;20863;-62
2024/01/26 16:57:24;;;;;;;37.63;11.00;;;;;;;;;;6231252;28;20045;-62
2024/01/26 17:00:25;;;;;;;30.83;9.30;;;;;;;;;;6231166;28;20045;-65
2024/01/26 17:03:27;;;;;;;26.10;7.93;;;;;;;;;;6232668;28;20144;-64
2024/01/26 17:06:27;;;;;;;21.27;7.77;;;;;;;;;;6233634;28;20053;-63
2024/01/26 17:09:28;;;;;;;17.75;7.28;;;;;;;;;;6230461;28;20088;-66
2024/01/26 17:12:29;;;;;;;18.08;6.93;;;;;;;;;;6229629;28;20057;-64
2024/01/26 17:15:30;;;;;;;17.25;6.03;;;;;;;;;;6229883;28;20152;-68
2024/01/26 17:18:30;;;;;;;15.10;5.90;;;;;;;;;;6227100;28;20053;-64
2024/01/26 17:21:31;;;;;;;18.40;6.10;;;;;;;;;;6228477;28;20053;-64
2024/01/26 17:24:32;;;;;;;20.38;6.90;;;;;;;;;;6231231;28;20064;-64
2024/01/26 17:27:33;;;;;;;14.20;5.60;;;;;;;;;;6230922;28;20065;-65
2024/01/26 17:30:33;;;;;;;16.42;5.50;;;;;;;;;;6229542;28;20111;-64
2024/01/26 17:33:34;;;;;;;20.08;6.68;;;;;;;;;;6232098;28;20046;-66
2024/01/26 17:36:35;;;;;;;15.88;5.55;;;;;;;;;;6232306;28;20417;-66
2024/01/26 17:39:36;;;;;;;16.33;6.03;;;;;;;;;;6230549;28;20512;-62
2024/01/26 17:42:36;;;;;;;15.75;5.68;;;;;;;;;;6229963;28;20046;-63
2024/01/26 17:45:37;;;;;;;14.20;5.35;;;;;;;;;;6230005;28;20049;-63
2024/01/26 17:48:38;;;;;;;17.17;5.57;;;;;;;;;;6229719;28;20050;-62